Williamsville, MO (63967)

1:24 AM CST on December 18, 2014 (GMT -0600)
Poplar Bluff 7 NW | Change Station
CLOSE
Current Station
Personal Weather Station
Location: Poplar Bluff, MO
Elevation: 449 ft
Nearby Weather Stations
Active Advisory: Special Statement

Elev 449 ft 36.83 °N, 90.52 °W | Updated 1 second ago

Overcast
Overcast
32.6 °F
Feels Like 33 °F
N
0.0
Wind Variable Wind from NNE
Gusts 0.0 mph

Today
High -- | Low -- °F
--% Chance of Precip.
Yesterday
High -- | Low -- °F
Precip. -- in
7:09 AM 4:47 PM
Waning Crescent, 16% visible
Pressure 30.28 in
Visibility 5.0 miles
Clouds Mostly Cloudy 6500 ft
Overcast 8500 ft
Windchill 33 °F
Dew Point 30 °F
Humidity 90%
Rainfall 0.00 in
Snow Depth Not available.
UV 0 out of 12
Pollen 1.60 out of 12
Air Quality Not available.
Flu Activity Not available.
METAR KPOF 180653Z AUTO 04005KT 5SM -RA BR BKN065 OVC085 01/M01 A3026 RMK AO2 SLP252 P0006 T00061006

More Conditions Fewer Conditions

Pressure 30.28 in
Visibility 5.0 miles
Clouds Mostly Cloudy 6500 ft
Overcast 8500 ft
Windchill 33 °F
Dew Point 30 °F
Humidity 90%
Rainfall 0.00 in
Snow Depth Not available.
UV 0 out of 12
Pollen 1.60 out of 12
Air Quality Not available.
Flu Activity Not available.
METAR KPOF 180653Z AUTO 04005KT 5SM -RA BR BKN065 OVC085 01/M01 A3026 RMK AO2 SLP252 P0006 T00061006

More Conditions Fewer Conditions

10-Day Weather Forecast

Almanac

Astronomy

Dec. 18, 2014 Rise Set
Actual Time
Civil Twilight
Nautical Twilight
Astronomical Twilight
Moon
Length of Visible Light
Length of Day
Tomorrow will be .
, % of the Moon is Illuminated

Today's Extremes

State Highs State Lows

Community

WunderPhotos

Upload Photos

1,778,900 photos uploaded!

WunderBlogs® & News

Nearby

Air Quality

  Air Quality AQ Index Pollutant
Not available.

Snow Depth

Station Depth Elevation

Earthquake Activity

City Distance Mag. Time & Date
Minimum magnitude displayed is 2.5.

Coastal Water Temperatures

Place Temperature

Nearby Weather Stations